Portada
METAR-TAF:

METAR-TAF

Aeropuertos :

Base Naval de Rota

Rota, España

latitud: 36-39N, longitud: 006-21W, altitud: 26 m

Observación

El informe se hizo hace 41 minutos, a las 09:00 UTC
Viento 6 kt del norte-noreste, variando entre norte y este-noreste
Temperatura 12°C
Humedad 94%
Presión 1023 hPa
Visibilidad: 6000 m

METAR: LERT 270900Z 03006KT 350V070 6000 NSC 12/11 Q1023 NOSIG

Hora: 10:41 (09:41 UTC)

Pronóstico

El informe se hizo hace 1 hora y 41 minutos, a las 08:00 UTC
Pronóstico válido del 27 a las 09 UTC al 28 a las 09 UTC
Viento 8 kt del noreste
Visibilidad 10 km o más
Escasas nubes a una altura de 3000 ft
Evolucionando progresivamente
del 27 a las 11 UTC al 27 a las 13 UTC
Viento 10 kt del este-sureste
Evolucionando progresivamente
del 28 a las 00 UTC al 28 a las 03 UTC
Viento 7 kt del noreste

TAF: LERT 270800Z 2709/2809 05008KT 9999 FEW030 TX18/2714Z TN10/2807Z BECMG 2711/2713 12010KT BECMG 2800/2803 05007KT

Observaciones y pronósticos meteorológicos de más de 4000 aeropuertos (mensajes METAR y TAF).

Los puntos amarillos y rojos representan las estaciones disponibles.

Ponga el ratón en el punto deseado para ver el nombre de la estación.

Haga clic para ver las observaciones y los pronósticos meteorológicos.

Para cambiar el mapa : haga clic en los botones verdes con una cruz de color negro para hacer un zoom, en el botón verde con un guión para alejar o en las flechas verdes para mapas adyacentes.


METAR-TAF: